Time;durP1;ratioP1;P1;durP2;ratioP2;P2;SDS_P1;SDS_P2;PMS_P1;PMS_P2;Temp;Humidity;BMP_temperature;BMP_pressure;BME280_temperature;BME280_humidity;BME280_pressure;Samples;Min_cycle;Max_cycle;Signal;HPM_P1;HPM_P2
2022/05/14 00:00:43;;;;;;;4.90;3.38;;;;;;;;;;4952538;28;20468;-61
2022/05/14 00:03:09;;;;;;;5.65;3.50;;;;;;;;;;4970246;28;20056;-62
2022/05/14 00:05:34;;;;;;;4.50;3.30;;;;;;;;;;4970542;28;20383;-62
2022/05/14 00:08:00;;;;;;;6.63;3.63;;;;;;;;;;4970554;28;20344;-63
2022/05/14 00:10:28;;;;;;;5.45;3.03;;;;;;;;;;4970084;28;20433;-62
2022/05/14 00:13:05;;;;;;;7.07;3.38;;;;;;;;;;4970359;28;20360;-61
2022/05/14 00:15:40;;;;;;;5.35;3.33;;;;;;;;;;4970566;28;20359;-62
2022/05/14 00:18:07;;;;;;;3.95;3.22;;;;;;;;;;4970111;28;20452;-62
2022/05/14 00:20:35;;;;;;;5.32;3.28;;;;;;;;;;4971198;28;20349;-62
2022/05/14 00:23:00;;;;;;;4.07;3.25;;;;;;;;;;4971454;28;20369;-63
2022/05/14 00:25:26;;;;;;;6.32;3.25;;;;;;;;;;4969807;28;20376;-62
2022/05/14 00:27:52;;;;;;;5.78;3.28;;;;;;;;;;4969874;28;20428;-62
2022/05/14 00:30:19;;;;;;;4.47;2.97;;;;;;;;;;4968243;28;20435;-62
2022/05/14 00:32:47;;;;;;;5.03;3.00;;;;;;;;;;4969752;28;20458;-62
2022/05/14 00:35:13;;;;;;;6.80;3.38;;;;;;;;;;4969552;28;20373;-62
2022/05/14 00:37:39;;;;;;;6.25;3.38;;;;;;;;;;4969624;28;20353;-63
2022/05/14 00:40:09;;;;;;;5.00;3.20;;;;;;;;;;4969603;28;20424;-66
2022/05/14 00:42:34;;;;;;;5.85;2.83;;;;;;;;;;4970539;28;20096;-62
2022/05/14 00:44:59;;;;;;;3.85;2.88;;;;;;;;;;4970027;28;20025;-62
2022/05/14 00:47:26;;;;;;;4.68;2.70;;;;;;;;;;4969685;28;20444;-63
2022/05/14 00:49:51;;;;;;;3.97;2.67;;;;;;;;;;4967743;28;20416;-62
2022/05/14 00:52:18;;;;;;;4.18;3.05;;;;;;;;;;4951721;28;20435;-63
2022/05/14 00:54:51;;;;;;;4.28;2.97;;;;;;;;;;4969678;28;20365;-63
2022/05/14 00:57:21;;;;;;;6.28;3.55;;;;;;;;;;4951996;28;20377;-62
2022/05/14 00:59:47;;;;;;;6.13;3.28;;;;;;;;;;4946957;28;20496;-62
2022/05/14 01:02:13;;;;;;;7.95;3.55;;;;;;;;;;4957621;28;20377;-62
2022/05/14 01:04:40;;;;;;;4.05;2.40;;;;;;;;;;4950244;28;20417;-63
2022/05/14 01:07:11;;;;;;;7.03;2.95;;;;;;;;;;4950104;28;20425;-62
2022/05/14 01:09:38;;;;;;;3.85;3.00;;;;;;;;;;4949502;28;20424;-62
2022/05/14 01:12:04;;;;;;;4.82;2.55;;;;;;;;;;4932231;28;20456;-62
2022/05/14 01:14:29;;;;;;;3.05;2.28;;;;;;;;;;4949703;28;20429;-62
2022/05/14 01:16:55;;;;;;;2.92;2.30;;;;;;;;;;4951575;28;20436;-62
2022/05/14 01:19:20;;;;;;;4.13;2.45;;;;;;;;;;4949388;28;20096;-62
2022/05/14 01:22:04;;;;;;;4.53;2.97;;;;;;;;;;4951136;28;20441;-62
2022/05/14 01:27:30;;;;;;;4.50;3.25;;;;;;;;;;4950286;28;20456;-62
2022/05/14 01:29:56;;;;;;;5.53;2.83;;;;;;;;;;4950469;28;20426;-62
2022/05/14 01:32:21;;;;;;;5.93;2.50;;;;;;;;;;4949529;28;20424;-62
2022/05/14 01:34:46;;;;;;;4.28;2.58;;;;;;;;;;4949298;28;20417;-62
2022/05/14 01:37:12;;;;;;;4.43;2.75;;;;;;;;;;4951408;28;20461;-62
2022/05/14 01:39:37;;;;;;;3.67;2.70;;;;;;;;;;4949610;28;20449;-62
2022/05/14 01:42:04;;;;;;;7.70;2.95;;;;;;;;;;4949656;28;20497;-61
2022/05/14 01:44:30;;;;;;;5.15;2.63;;;;;;;;;;4950315;28;20385;-62
2022/05/14 01:46:55;;;;;;;3.42;2.50;;;;;;;;;;4946937;28;20436;-63
2022/05/14 01:49:20;;;;;;;6.15;2.60;;;;;;;;;;4948956;28;20025;-62
2022/05/14 01:51:46;;;;;;;4.18;2.65;;;;;;;;;;4950058;28;20380;-62
2022/05/14 01:54:11;;;;;;;5.13;2.92;;;;;;;;;;4948988;28;20472;-62
2022/05/14 01:56:37;;;;;;;5.03;3.08;;;;;;;;;;4949237;28;20381;-63
2022/05/14 01:59:03;;;;;;;8.10;2.78;;;;;;;;;;4949008;28;20490;-62
2022/05/14 02:01:31;;;;;;;3.40;2.50;;;;;;;;;;4950477;28;20109;-62
2022/05/14 02:04:02;;;;;;;4.10;2.43;;;;;;;;;;4953756;28;20432;-62
2022/05/14 02:06:29;;;;;;;4.47;2.35;;;;;;;;;;4953197;28;20330;-62
2022/05/14 02:08:55;;;;;;;3.10;2.30;;;;;;;;;;4952751;28;20056;-63
2022/05/14 02:11:21;;;;;;;4.93;2.92;;;;;;;;;;4952976;28;20026;-62
2022/05/14 02:13:47;;;;;;;7.57;2.58;;;;;;;;;;4952917;28;20108;-62
2022/05/14 02:16:12;;;;;;;4.65;2.88;;;;;;;;;;4953208;28;20508;-63
2022/05/14 02:18:38;;;;;;;5.57;3.88;;;;;;;;;;4952369;28;20416;-62
2022/05/14 02:21:04;;;;;;;3.33;2.50;;;;;;;;;;4952705;28;20457;-62
2022/05/14 02:23:30;;;;;;;6.22;2.65;;;;;;;;;;4953309;28;20411;-62
2022/05/14 02:25:55;;;;;;;3.28;2.40;;;;;;;;;;4952463;28;20345;-62
2022/05/14 02:28:21;;;;;;;5.72;2.58;;;;;;;;;;4953607;28;20041;-62
2022/05/14 02:30:46;;;;;;;3.60;2.35;;;;;;;;;;4952097;28;20437;-62
2022/05/14 02:33:12;;;;;;;3.28;2.55;;;;;;;;;;4952332;28;20388;-63
2022/05/14 02:35:37;;;;;;;3.88;2.70;;;;;;;;;;4952574;28;20026;-64
2022/05/14 02:38:03;;;;;;;3.30;2.58;;;;;;;;;;4952578;28;20417;-62
2022/05/14 02:40:29;;;;;;;3.78;2.20;;;;;;;;;;4952624;28;20417;-62
2022/05/14 02:42:55;;;;;;;3.05;2.30;;;;;;;;;;4952497;28;20491;-62
2022/05/14 02:45:21;;;;;;;4.05;2.72;;;;;;;;;;4953144;28;20433;-62
2022/05/14 02:47:47;;;;;;;5.40;2.63;;;;;;;;;;4952304;28;20338;-62
2022/05/14 02:50:13;;;;;;;4.25;2.50;;;;;;;;;;4952161;28;20133;-62
2022/05/14 02:52:38;;;;;;;4.72;2.70;;;;;;;;;;4952677;28;20441;-63
2022/05/14 02:55:05;;;;;;;3.67;2.28;;;;;;;;;;4951965;28;20057;-62
2022/05/14 02:57:30;;;;;;;3.38;2.53;;;;;;;;;;4952083;28;20438;-62
2022/05/14 02:59:55;;;;;;;3.15;2.65;;;;;;;;;;4952384;28;20418;-62
2022/05/14 03:02:21;;;;;;;4.90;2.72;;;;;;;;;;4951819;28;20456;-62
2022/05/14 03:04:48;;;;;;;4.10;2.40;;;;;;;;;;4951755;28;20441;-63
2022/05/14 03:07:15;;;;;;;3.97;2.22;;;;;;;;;;4951919;28;20437;-62
2022/05/14 03:09:41;;;;;;;3.95;2.03;;;;;;;;;;4952059;28;20414;-62
2022/05/14 03:12:08;;;;;;;3.38;2.35;;;;;;;;;;4951247;28;20437;-62
2022/05/14 03:14:34;;;;;;;3.75;2.67;;;;;;;;;;4951047;28;20038;-63
2022/05/14 03:16:59;;;;;;;3.80;2.53;;;;;;;;;;4951895;28;20549;-62
2022/05/14 03:19:25;;;;;;;3.80;2.53;;;;;;;;;;4952554;28;20364;-62
2022/05/14 03:21:50;;;;;;;3.00;2.40;;;;;;;;;;4951376;28;20450;-63
2022/05/14 03:24:16;;;;;;;4.30;2.17;;;;;;;;;;4934077;28;20311;-62
2022/05/14 03:26:42;;;;;;;5.00;2.10;;;;;;;;;;4952478;28;20484;-62
2022/05/14 03:29:08;;;;;;;3.63;2.20;;;;;;;;;;4952487;28;20457;-62
2022/05/14 03:31:34;;;;;;;4.22;2.92;;;;;;;;;;4951847;28;20456;-62
2022/05/14 03:33:59;;;;;;;3.30;2.58;;;;;;;;;;4952206;28;20531;-63
2022/05/14 03:36:25;;;;;;;4.47;2.40;;;;;;;;;;4951251;28;20377;-62
2022/05/14 03:38:50;;;;;;;3.85;2.40;;;;;;;;;;4952093;28;20341;-62
2022/05/14 03:41:20;;;;;;;5.32;2.50;;;;;;;;;;4951359;28;20436;-63
2022/05/14 03:43:46;;;;;;;3.63;2.22;;;;;;;;;;4934400;28;20388;-62
2022/05/14 03:46:11;;;;;;;3.22;2.22;;;;;;;;;;4952644;28;20330;-63
2022/05/14 03:48:37;;;;;;;3.35;2.20;;;;;;;;;;4951555;28;20398;-62
2022/05/14 03:51:03;;;;;;;3.97;2.70;;;;;;;;;;4951190;28;20421;-63
2022/05/14 03:53:29;;;;;;;5.10;2.30;;;;;;;;;;4951079;28;20376;-63
2022/05/14 03:55:55;;;;;;;3.08;2.15;;;;;;;;;;4951008;28;20084;-62
2022/05/14 03:58:20;;;;;;;5.13;2.53;;;;;;;;;;4950658;28;20469;-62
2022/05/14 04:00:46;;;;;;;4.07;2.33;;;;;;;;;;4951376;28;20030;-62
2022/05/14 04:03:11;;;;;;;5.10;2.40;;;;;;;;;;4951178;28;20421;-62
2022/05/14 04:05:36;;;;;;;3.75;2.50;;;;;;;;;;4950966;28;20052;-62
2022/05/14 04:08:02;;;;;;;2.25;1.95;;;;;;;;;;4951844;28;20429;-64
2022/05/14 04:10:27;;;;;;;4.53;2.45;;;;;;;;;;4950858;28;20113;-63
2022/05/14 04:12:52;;;;;;;4.93;2.50;;;;;;;;;;4950927;28;20056;-62
2022/05/14 04:15:18;;;;;;;4.93;2.22;;;;;;;;;;4950788;28;20333;-63
2022/05/14 04:17:43;;;;;;;4.15;2.25;;;;;;;;;;4950628;28;20447;-62
2022/05/14 04:20:09;;;;;;;2.88;2.17;;;;;;;;;;4950379;28;20073;-63
2022/05/14 04:22:35;;;;;;;2.92;1.88;;;;;;;;;;4950213;28;20061;-62
2022/05/14 04:25:01;;;;;;;2.72;1.88;;;;;;;;;;4951939;28;20537;-62
2022/05/14 04:27:26;;;;;;;3.53;2.17;;;;;;;;;;4952131;28;20386;-62
2022/05/14 04:29:52;;;;;;;2.58;2.25;;;;;;;;;;4932590;28;20541;-62
2022/05/14 04:32:17;;;;;;;4.97;2.22;;;;;;;;;;4951139;28;20429;-62
2022/05/14 04:34:43;;;;;;;3.97;2.83;;;;;;;;;;4950403;28;20029;-62
2022/05/14 04:37:08;;;;;;;5.82;2.70;;;;;;;;;;4950158;28;21685;-62
2022/05/14 04:39:34;;;;;;;4.45;2.40;;;;;;;;;;4950555;28;20440;-62
2022/05/14 04:42:05;;;;;;;3.67;2.40;;;;;;;;;;4950297;28;20450;-62
2022/05/14 04:44:34;;;;;;;5.45;2.75;;;;;;;;;;4950539;28;20026;-63
2022/05/14 04:47:00;;;;;;;2.75;2.30;;;;;;;;;;4950349;28;20369;-62
2022/05/14 04:49:26;;;;;;;4.30;2.40;;;;;;;;;;4950926;28;20381;-61
2022/05/14 04:51:52;;;;;;;4.45;2.53;;;;;;;;;;4950949;28;20419;-62
2022/05/14 04:54:18;;;;;;;3.63;2.30;;;;;;;;;;4950048;28;20402;-63
2022/05/14 04:56:44;;;;;;;5.68;2.45;;;;;;;;;;4950699;28;20421;-63
2022/05/14 04:59:10;;;;;;;4.15;2.60;;;;;;;;;;4949726;28;20414;-63
2022/05/14 05:01:35;;;;;;;5.82;2.25;;;;;;;;;;4951556;28;20366;-61
2022/05/14 05:04:00;;;;;;;4.72;2.63;;;;;;;;;;4950095;28;20512;-62
2022/05/14 05:06:27;;;;;;;3.78;2.42;;;;;;;;;;4949890;28;20528;-62
2022/05/14 05:08:52;;;;;;;3.75;2.33;;;;;;;;;;4949732;28;20340;-62
2022/05/14 05:11:22;;;;;;;4.80;2.80;;;;;;;;;;4950058;28;20052;-63
2022/05/14 05:13:47;;;;;;;5.35;2.30;;;;;;;;;;4950806;28;20184;-62
2022/05/14 05:16:13;;;;;;;3.13;2.30;;;;;;;;;;4949173;28;20437;-62
2022/05/14 05:18:38;;;;;;;3.70;2.20;;;;;;;;;;4949227;28;20512;-64
2022/05/14 05:21:04;;;;;;;2.55;2.22;;;;;;;;;;4950481;28;20540;-62
2022/05/14 05:23:30;;;;;;;3.80;2.40;;;;;;;;;;4949300;28;20368;-62
2022/05/14 05:25:56;;;;;;;4.97;2.67;;;;;;;;;;4948540;28;20492;-63
2022/05/14 05:28:22;;;;;;;3.58;2.50;;;;;;;;;;4947663;28;20418;-62
2022/05/14 05:30:48;;;;;;;3.40;2.30;;;;;;;;;;4949243;28;20376;-62
2022/05/14 05:33:16;;;;;;;3.95;2.33;;;;;;;;;;4949489;28;20429;-63
2022/05/14 05:35:42;;;;;;;4.47;2.55;;;;;;;;;;4950318;28;20405;-63
2022/05/14 05:38:07;;;;;;;4.22;2.53;;;;;;;;;;4955904;28;20034;-62
2022/05/14 05:40:33;;;;;;;3.53;2.30;;;;;;;;;;4955635;28;20025;-62
2022/05/14 05:42:59;;;;;;;3.88;2.30;;;;;;;;;;4955836;28;20413;-62
2022/05/14 05:45:25;;;;;;;3.33;2.10;;;;;;;;;;4955906;28;20057;-63
2022/05/14 05:47:50;;;;;;;3.80;2.22;;;;;;;;;;4957512;28;20524;-63
2022/05/14 05:50:15;;;;;;;4.55;2.50;;;;;;;;;;4955926;28;20069;-62
2022/05/14 05:52:41;;;;;;;3.78;2.40;;;;;;;;;;4955929;28;20416;-63
2022/05/14 05:57:51;;;;;;;4.57;2.28;;;;;;;;;;4956421;28;20388;-62
2022/05/14 06:00:23;;;;;;;3.85;1.90;;;;;;;;;;4958084;28;20448;-62
2022/05/14 06:02:49;;;;;;;3.65;2.33;;;;;;;;;;4956092;28;20025;-62
2022/05/14 06:05:15;;;;;;;2.42;2.22;;;;;;;;;;4955439;28;20464;-62
2022/05/14 06:07:41;;;;;;;7.32;2.45;;;;;;;;;;4956748;28;20093;-62
2022/05/14 06:10:09;;;;;;;3.83;1.77;;;;;;;;;;4955450;28;20033;-62
2022/05/14 06:12:38;;;;;;;4.88;2.20;;;;;;;;;;4956822;28;20350;-63
2022/05/14 06:15:08;;;;;;;3.70;2.40;;;;;;;;;;4955689;28;20033;-63
2022/05/14 06:17:33;;;;;;;3.20;2.03;;;;;;;;;;4955697;28;20030;-62
2022/05/14 06:19:58;;;;;;;2.92;2.10;;;;;;;;;;4955531;28;20492;-62
2022/05/14 06:22:23;;;;;;;3.10;2.17;;;;;;;;;;4956632;28;20457;-62
2022/05/14 06:24:49;;;;;;;3.75;2.38;;;;;;;;;;4955800;28;20444;-62
2022/05/14 06:27:14;;;;;;;3.28;1.80;;;;;;;;;;4955100;28;20441;-62
2022/05/14 06:29:39;;;;;;;3.00;1.90;;;;;;;;;;4955559;28;20441;-62
2022/05/14 06:32:05;;;;;;;3.75;2.03;;;;;;;;;;4955279;28;20524;-62
2022/05/14 06:34:30;;;;;;;5.03;2.22;;;;;;;;;;4955280;28;20468;-62
2022/05/14 06:36:56;;;;;;;4.07;2.42;;;;;;;;;;4955311;28;20029;-63
2022/05/14 06:39:22;;;;;;;2.90;1.83;;;;;;;;;;4955839;28;20323;-62
2022/05/14 06:41:48;;;;;;;3.88;1.90;;;;;;;;;;4955429;28;20449;-61
2022/05/14 06:44:13;;;;;;;3.75;2.45;;;;;;;;;;4955515;28;20380;-63
2022/05/14 06:46:39;;;;;;;2.55;1.90;;;;;;;;;;4956597;28;20373;-63
2022/05/14 06:49:04;;;;;;;3.05;1.88;;;;;;;;;;4953933;28;20025;-62
2022/05/14 06:51:31;;;;;;;2.70;1.73;;;;;;;;;;4952094;28;20345;-62
2022/05/14 06:54:01;;;;;;;3.28;1.92;;;;;;;;;;4953019;28;20401;-62
2022/05/14 06:56:27;;;;;;;3.40;2.28;;;;;;;;;;4952152;28;20353;-62
2022/05/14 06:58:53;;;;;;;4.10;2.22;;;;;;;;;;4952058;28;20417;-62
2022/05/14 07:01:19;;;;;;;2.90;1.95;;;;;;;;;;4953189;28;20388;-62
2022/05/14 07:06:37;;;;;;;3.08;1.95;;;;;;;;;;4937185;28;20341;-67
2022/05/14 07:09:03;;;;;;;4.47;2.25;;;;;;;;;;4951974;28;20381;-62
2022/05/14 07:11:28;;;;;;;3.25;1.60;;;;;;;;;;4952512;28;20034;-62
2022/05/14 07:13:54;;;;;;;2.28;1.55;;;;;;;;;;4952801;28;20381;-62
2022/05/14 07:16:19;;;;;;;3.15;2.10;;;;;;;;;;4952287;28;20360;-62
2022/05/14 07:18:45;;;;;;;2.80;2.08;;;;;;;;;;4951612;28;20413;-63
2022/05/14 07:21:10;;;;;;;4.07;1.70;;;;;;;;;;4951712;28;20026;-62
2022/05/14 07:23:36;;;;;;;2.47;1.65;;;;;;;;;;4951523;28;20572;-62
2022/05/14 07:26:05;;;;;;;1.92;1.50;;;;;;;;;;4953040;28;20344;-62
2022/05/14 07:28:33;;;;;;;4.03;2.20;;;;;;;;;;4951607;28;20462;-62
2022/05/14 07:30:59;;;;;;;3.53;2.35;;;;;;;;;;4951561;28;20078;-62
2022/05/14 07:33:26;;;;;;;3.90;2.15;;;;;;;;;;4951283;28;20350;-62
2022/05/14 07:35:51;;;;;;;6.07;2.22;;;;;;;;;;4951590;28;20342;-62
2022/05/14 07:38:16;;;;;;;3.20;2.05;;;;;;;;;;4933775;28;20413;-62
2022/05/14 07:40:43;;;;;;;3.08;1.83;;;;;;;;;;4951357;28;20076;-64
2022/05/14 07:43:10;;;;;;;4.13;1.75;;;;;;;;;;4951492;28;20049;-62
2022/05/14 07:45:42;;;;;;;3.33;1.83;;;;;;;;;;4951706;28;20065;-63
2022/05/14 07:48:18;;;;;;;3.67;1.98;;;;;;;;;;4951754;28;20053;-62
2022/05/14 07:50:44;;;;;;;6.20;2.25;;;;;;;;;;4951404;28;20033;-63
2022/05/14 07:53:10;;;;;;;2.35;2.00;;;;;;;;;;4950942;28;20446;-63
2022/05/14 07:55:36;;;;;;;3.55;1.80;;;;;;;;;;4933570;28;20034;-61
2022/05/14 07:58:03;;;;;;;2.78;2.05;;;;;;;;;;4951198;28;20333;-63
2022/05/14 08:00:29;;;;;;;2.67;1.90;;;;;;;;;;4951710;28;20472;-62
2022/05/14 08:02:54;;;;;;;2.85;1.70;;;;;;;;;;4951038;28;20461;-62
2022/05/14 08:05:20;;;;;;;3.92;1.83;;;;;;;;;;4950826;28;20366;-62
2022/05/14 08:07:46;;;;;;;2.05;1.48;;;;;;;;;;4950663;28;20492;-62
2022/05/14 08:10:13;;;;;;;4.90;2.30;;;;;;;;;;4950640;28;20364;-62
2022/05/14 08:12:43;;;;;;;3.40;1.92;;;;;;;;;;4950712;28;20459;-62
2022/05/14 08:15:10;;;;;;;2.97;1.85;;;;;;;;;;4950831;28;20492;-63
2022/05/14 08:17:36;;;;;;;3.95;2.10;;;;;;;;;;4950528;28;20512;-62
2022/05/14 08:20:02;;;;;;;3.40;2.10;;;;;;;;;;4950917;28;20341;-63
2022/05/14 08:25:11;;;;;;;5.43;2.17;;;;;;;;;;4951456;28;20523;-63
2022/05/14 08:27:44;;;;;;;6.70;2.15;;;;;;;;;;4950582;28;20497;-62
2022/05/14 08:30:22;;;;;;;2.97;1.63;;;;;;;;;;4950033;28;20511;-62
2022/05/14 08:32:47;;;;;;;5.63;1.45;;;;;;;;;;4950266;28;20034;-62
2022/05/14 08:35:13;;;;;;;3.13;1.95;;;;;;;;;;4950155;28;20488;-63
2022/05/14 08:37:39;;;;;;;2.83;1.52;;;;;;;;;;4950357;28;20030;-62
2022/05/14 08:40:19;;;;;;;4.97;1.90;;;;;;;;;;4950492;28;20426;-62
2022/05/14 08:42:47;;;;;;;3.15;2.03;;;;;;;;;;4932316;28;20480;-62
2022/05/14 08:45:15;;;;;;;5.45;1.65;;;;;;;;;;4950333;28;20528;-62
2022/05/14 08:47:52;;;;;;;3.08;2.08;;;;;;;;;;4932956;28;20365;-62
2022/05/14 08:50:18;;;;;;;2.40;1.63;;;;;;;;;;4933444;28;20375;-62
2022/05/14 08:52:43;;;;;;;3.05;1.50;;;;;;;;;;4933030;28;20049;-63
2022/05/14 08:55:15;;;;;;;3.20;1.58;;;;;;;;;;4949923;28;20452;-62
2022/05/14 08:58:31;;;;;;;2.78;1.45;;;;;;;;;;4932620;28;20408;-62
2022/05/14 09:01:01;;;;;;;2.45;1.42;;;;;;;;;;4889653;29;20355;-62
2022/05/14 09:03:27;;;;;;;2.60;1.45;;;;;;;;;;4938636;28;20349;-61
2022/05/14 09:05:56;;;;;;;4.50;1.80;;;;;;;;;;4949895;28;20314;-63
2022/05/14 09:08:22;;;;;;;4.05;1.60;;;;;;;;;;4949774;28;20520;-64
2022/05/14 09:11:00;;;;;;;3.45;1.80;;;;;;;;;;4949417;28;20353;-62
2022/05/14 09:13:27;;;;;;;2.08;1.48;;;;;;;;;;4949608;28;20354;-61
2022/05/14 09:15:55;;;;;;;2.65;1.23;;;;;;;;;;4949904;28;20030;-61
2022/05/14 09:18:23;;;;;;;2.47;1.65;;;;;;;;;;4931919;28;20026;-63
2022/05/14 09:20:58;;;;;;;3.60;1.20;;;;;;;;;;4949501;28;20030;-64
2022/05/14 09:23:47;;;;;;;2.78;1.50;;;;;;;;;;4932351;28;20513;-63
2022/05/14 09:26:39;;;;;;;5.18;1.35;;;;;;;;;;4932705;28;20438;-62
2022/05/14 09:29:26;;;;;;;1.50;1.20;;;;;;;;;;4928200;28;20061;-62
2022/05/14 09:32:00;;;;;;;2.28;1.30;;;;;;;;;;4932016;28;20345;-63
2022/05/14 09:34:30;;;;;;;2.08;1.42;;;;;;;;;;4950346;28;20100;-63
2022/05/14 09:37:07;;;;;;;1.70;1.30;;;;;;;;;;4949712;28;20406;-62
2022/05/14 09:39:32;;;;;;;2.15;1.27;;;;;;;;;;4931981;28;20373;-62
2022/05/14 09:42:00;;;;;;;5.15;1.55;;;;;;;;;;4950192;28;20376;-62
2022/05/14 09:44:47;;;;;;;3.72;1.83;;;;;;;;;;4949449;28;20549;-63
2022/05/14 09:47:25;;;;;;;2.55;1.73;;;;;;;;;;4948470;28;20034;-63
2022/05/14 09:49:58;;;;;;;1.97;1.20;;;;;;;;;;4949757;28;20354;-62
2022/05/14 09:52:26;;;;;;;3.33;1.10;;;;;;;;;;4949419;28;20026;-62
2022/05/14 09:54:51;;;;;;;3.08;1.27;;;;;;;;;;4949354;28;20484;-63
2022/05/14 09:57:32;;;;;;;3.35;1.50;;;;;;;;;;4932113;28;20421;-62
2022/05/14 10:00:27;;;;;;;2.28;1.30;;;;;;;;;;4949930;28;20461;-62
2022/05/14 10:03:35;;;;;;;4.30;1.10;;;;;;;;;;4923132;28;20457;-62
2022/05/14 10:06:24;;;;;;;2.22;1.33;;;;;;;;;;4949106;28;20321;-62
2022/05/14 10:08:55;;;;;;;2.10;1.23;;;;;;;;;;4949830;28;20469;-62
2022/05/14 10:11:22;;;;;;;2.13;1.27;;;;;;;;;;4949392;28;20368;-62
2022/05/14 10:14:00;;;;;;;2.97;1.40;;;;;;;;;;4949213;28;20380;-62
2022/05/14 10:16:43;;;;;;;2.65;1.23;;;;;;;;;;4949027;28;20059;-62
2022/05/14 10:19:21;;;;;;;2.15;1.50;;;;;;;;;;4931303;28;20453;-63
2022/05/14 10:22:13;;;;;;;2.70;1.45;;;;;;;;;;4931769;28;20084;-62
2022/05/14 10:28:19;;;;;;;3.00;1.30;;;;;;;;;;4952778;28;20528;-61
2022/05/14 10:30:51;;;;;;;2.13;1.20;;;;;;;;;;4935516;28;20333;-63
2022/05/14 10:33:19;;;;;;;1.58;1.15;;;;;;;;;;4953536;28;20420;-62
2022/05/14 10:35:44;;;;;;;2.92;1.30;;;;;;;;;;4952545;28;20421;-63
2022/05/14 10:38:18;;;;;;;2.88;1.60;;;;;;;;;;4952594;28;20472;-62
2022/05/14 10:40:48;;;;;;;3.75;1.25;;;;;;;;;;4934973;28;20440;-62
2022/05/14 10:43:16;;;;;;;2.58;1.05;;;;;;;;;;4953475;28;20382;-62
2022/05/14 10:45:47;;;;;;;3.10;1.05;;;;;;;;;;4935368;28;20377;-62
2022/05/14 10:48:27;;;;;;;3.05;1.15;;;;;;;;;;4952796;28;20413;-61
2022/05/14 10:50:52;;;;;;;3.50;1.45;;;;;;;;;;4952444;28;20345;-62
2022/05/14 10:53:18;;;;;;;1.92;1.00;;;;;;;;;;4952719;28;20340;-62
2022/05/14 10:56:03;;;;;;;2.80;1.27;;;;;;;;;;4953397;28;20366;-62
2022/05/14 10:58:36;;;;;;;1.60;1.00;;;;;;;;;;4952511;28;20530;-62
2022/05/14 11:01:34;;;;;;;3.65;1.13;;;;;;;;;;4952760;28;20453;-62
2022/05/14 11:04:11;;;;;;;1.52;1.05;;;;;;;;;;4934245;28;20342;-63
2022/05/14 11:06:49;;;;;;;2.65;1.23;;;;;;;;;;4951946;28;20346;-62
2022/05/14 11:09:20;;;;;;;1.85;1.30;;;;;;;;;;4952185;28;20327;-62
2022/05/14 11:11:48;;;;;;;1.80;1.10;;;;;;;;;;4951740;28;20037;-62
2022/05/14 11:14:14;;;;;;;2.90;1.15;;;;;;;;;;4935187;28;20394;-62
2022/05/14 11:16:49;;;;;;;5.05;1.27;;;;;;;;;;4934434;28;20397;-62
2022/05/14 11:19:30;;;;;;;3.03;1.50;;;;;;;;;;4951783;28;20413;-62
2022/05/14 11:21:56;;;;;;;3.47;1.20;;;;;;;;;;4951926;28;20414;-62
2022/05/14 11:24:35;;;;;;;1.20;0.80;;;;;;;;;;4934507;28;20433;-62
2022/05/14 11:27:00;;;;;;;;;;;;;;;;;;4952362;28;20057;-62
2022/05/14 11:29:27;;;;;;;2.83;0.93;;;;;;;;;;4951748;28;19914;-63
2022/05/14 11:32:02;;;;;;;1.75;0.80;;;;;;;;;;4951495;28;20570;-62
2022/05/14 11:34:28;;;;;;;4.40;1.27;;;;;;;;;;4950201;28;20460;-63
2022/05/14 11:36:56;;;;;;;11.10;1.52;;;;;;;;;;4952250;28;20364;-63
2022/05/14 11:39:23;;;;;;;2.97;1.10;;;;;;;;;;4952159;28;20411;-63
2022/05/14 11:42:07;;;;;;;2.90;0.90;;;;;;;;;;4951468;28;20344;-63
2022/05/14 11:44:42;;;;;;;2.47;1.30;;;;;;;;;;4951189;28;20387;-62
2022/05/14 11:47:24;;;;;;;1.25;0.90;;;;;;;;;;4934475;28;20401;-62
2022/05/14 11:49:50;;;;;;;3.03;1.08;;;;;;;;;;4951349;28;20030;-63
2022/05/14 11:52:20;;;;;;;1.00;0.75;;;;;;;;;;4951244;28;20064;-62
2022/05/14 11:55:02;;;;;;;2.00;0.88;;;;;;;;;;4933792;28;20124;-63
2022/05/14 11:57:36;;;;;;;1.38;0.90;;;;;;;;;;4951185;28;20380;-62
2022/05/14 12:00:08;;;;;;;0.95;0.60;;;;;;;;;;4934154;28;20365;-62
2022/05/14 12:02:41;;;;;;;4.50;1.25;;;;;;;;;;4952017;28;20432;-63
2022/05/14 12:05:12;;;;;;;2.00;1.13;;;;;;;;;;4932997;28;20473;-63
2022/05/14 12:07:50;;;;;;;2.60;1.23;;;;;;;;;;4933714;28;20034;-64
2022/05/14 12:10:31;;;;;;;2.75;1.15;;;;;;;;;;4951079;28;20679;-62
2022/05/14 12:13:02;;;;;;;2.50;0.80;;;;;;;;;;4950692;28;20489;-62
2022/05/14 12:15:30;;;;;;;1.35;0.70;;;;;;;;;;4950543;28;20414;-62
2022/05/14 12:17:57;;;;;;;1.93;1.23;;;;;;;;;;4933450;28;20034;-62
2022/05/14 12:20:29;;;;;;;1.95;0.82;;;;;;;;;;4932592;28;20332;-62
2022/05/14 12:22:58;;;;;;;1.98;1.30;;;;;;;;;;4933785;28;20341;-62
2022/05/14 12:25:45;;;;;;;3.22;1.05;;;;;;;;;;4951026;28;20341;-63
2022/05/14 12:28:25;;;;;;;2.13;1.00;;;;;;;;;;4950475;28;20337;-62
2022/05/14 12:33:57;;;;;;;4.75;1.05;;;;;;;;;;4950400;28;20459;-64
2022/05/14 12:36:24;;;;;;;4.07;1.00;;;;;;;;;;4932659;28;20357;-63
2022/05/14 12:38:50;;;;;;;3.03;1.45;;;;;;;;;;4950913;28;20389;-62
2022/05/14 12:41:31;;;;;;;1.98;1.02;;;;;;;;;;4950298;28;20060;-62
2022/05/14 12:44:10;;;;;;;2.53;1.10;;;;;;;;;;4950289;28;20492;-62
2022/05/14 12:46:42;;;;;;;5.15;1.27;;;;;;;;;;4950582;28;20377;-62
2022/05/14 12:49:19;;;;;;;2.10;0.90;;;;;;;;;;4950200;28;20116;-62
2022/05/14 12:51:51;;;;;;;5.32;1.08;;;;;;;;;;4948298;28;20025;-63
2022/05/14 12:54:24;;;;;;;2.90;1.10;;;;;;;;;;4932437;28;20318;-63
2022/05/14 12:56:52;;;;;;;1.92;1.00;;;;;;;;;;4950233;28;20429;-63
2022/05/14 12:59:18;;;;;;;3.00;1.25;;;;;;;;;;4932484;28;20449;-62
2022/05/14 13:01:44;;;;;;;1.08;0.73;;;;;;;;;;4932796;28;21642;-63
2022/05/14 13:04:10;;;;;;;1.65;1.38;;;;;;;;;;4931993;28;20413;-62
2022/05/14 13:06:41;;;;;;;1.48;1.10;;;;;;;;;;4949714;28;20372;-62
2022/05/14 13:09:09;;;;;;;2.13;1.00;;;;;;;;;;4949715;28;20334;-62
2022/05/14 13:11:37;;;;;;;4.05;1.00;;;;;;;;;;4949833;28;20373;-62
2022/05/14 13:14:13;;;;;;;2.78;1.33;;;;;;;;;;4932134;28;20026;-63
2022/05/14 13:16:38;;;;;;;1.60;1.05;;;;;;;;;;4949479;28;20437;-62
2022/05/14 13:19:23;;;;;;;1.55;1.20;;;;;;;;;;4950735;28;20546;-62
2022/05/14 13:21:53;;;;;;;4.47;1.17;;;;;;;;;;4931824;28;20516;-62
2022/05/14 13:24:25;;;;;;;1.95;1.08;;;;;;;;;;4949830;28;20460;-62
2022/05/14 13:26:52;;;;;;;2.65;1.35;;;;;;;;;;4949756;28;20505;-62
2022/05/14 13:29:22;;;;;;;3.38;1.20;;;;;;;;;;4950941;28;20363;-61
2022/05/14 13:31:48;;;;;;;1.65;0.90;;;;;;;;;;4949819;28;20345;-62
2022/05/14 13:37:13;;;;;;;1.95;1.00;;;;;;;;;;4951361;28;20467;-62
2022/05/14 13:39:56;;;;;;;2.40;1.10;;;;;;;;;;4949335;28;20429;-63
2022/05/14 13:42:27;;;;;;;2.13;1.10;;;;;;;;;;4949469;28;20497;-61
2022/05/14 13:45:00;;;;;;;1.38;1.17;;;;;;;;;;4949594;28;20354;-63
2022/05/14 13:47:25;;;;;;;3.63;1.13;;;;;;;;;;4949472;28;20416;-62
2022/05/14 13:49:54;;;;;;;2.53;1.10;;;;;;;;;;4949753;28;20466;-63
2022/05/14 13:52:33;;;;;;;1.52;1.20;;;;;;;;;;4950221;28;20411;-62
2022/05/14 13:55:14;;;;;;;1.90;0.95;;;;;;;;;;4950016;28;20101;-62
2022/05/14 13:57:40;;;;;;;2.00;0.93;;;;;;;;;;4933991;28;20337;-63
2022/05/14 14:00:08;;;;;;;3.08;1.20;;;;;;;;;;4953136;28;20326;-62
2022/05/14 14:02:33;;;;;;;2.17;1.25;;;;;;;;;;4954229;28;20325;-63
2022/05/14 14:05:02;;;;;;;1.05;0.90;;;;;;;;;;4953089;28;20018;-62
2022/05/14 14:07:28;;;;;;;;;;;;;;;;;;4954875;28;20385;-62
2022/05/14 14:09:53;;;;;;;2.05;1.45;;;;;;;;;;4953272;28;20245;-62
2022/05/14 14:12:23;;;;;;;2.55;1.17;;;;;;;;;;4952788;28;20433;-62
2022/05/14 14:14:49;;;;;;;1.77;1.02;;;;;;;;;;4953947;28;20349;-64
2022/05/14 14:17:14;;;;;;;3.30;1.23;;;;;;;;;;4952806;28;20373;-62
2022/05/14 14:19:39;;;;;;;2.58;1.10;;;;;;;;;;4953046;28;20103;-61
2022/05/14 14:22:07;;;;;;;0.82;0.80;;;;;;;;;;4952463;28;20034;-64
2022/05/14 14:24:41;;;;;;;2.17;1.23;;;;;;;;;;4935411;28;20151;-62
2022/05/14 14:27:07;;;;;;;4.13;2.05;;;;;;;;;;4952473;28;20437;-62
2022/05/14 14:29:33;;;;;;;1.95;1.40;;;;;;;;;;4952597;28;20434;-62
2022/05/14 14:31:58;;;;;;;5.13;1.63;;;;;;;;;;4952467;28;20433;-62
2022/05/14 14:34:23;;;;;;;1.48;0.98;;;;;;;;;;4952563;28;20468;-62
2022/05/14 14:36:49;;;;;;;4.30;1.13;;;;;;;;;;4952320;28;20346;-62
2022/05/14 14:39:14;;;;;;;2.63;1.30;;;;;;;;;;4952553;28;20053;-62
2022/05/14 14:41:40;;;;;;;1.98;1.38;;;;;;;;;;4952067;28;20058;-62
2022/05/14 14:44:05;;;;;;;2.67;1.33;;;;;;;;;;4952694;28;20457;-62
2022/05/14 14:46:32;;;;;;;2.42;1.17;;;;;;;;;;4952332;28;20048;-63
2022/05/14 14:48:57;;;;;;;3.67;1.38;;;;;;;;;;4934716;28;20034;-62
2022/05/14 14:51:24;;;;;;;1.70;1.17;;;;;;;;;;4952207;28;20034;-63
2022/05/14 14:53:49;;;;;;;3.22;1.35;;;;;;;;;;4952208;28;20417;-63
2022/05/14 14:56:15;;;;;;;1.65;1.10;;;;;;;;;;4952275;28;20580;-62
2022/05/14 14:58:42;;;;;;;4.95;1.20;;;;;;;;;;4951826;28;20437;-63
2022/05/14 15:01:11;;;;;;;2.47;1.17;;;;;;;;;;4952672;28;20373;-62
2022/05/14 15:03:42;;;;;;;1.17;1.05;;;;;;;;;;4951796;28;20337;-62
2022/05/14 15:06:11;;;;;;;4.03;1.23;;;;;;;;;;4952374;28;20030;-62
2022/05/14 15:08:38;;;;;;;1.65;1.15;;;;;;;;;;4950801;28;20338;-63
2022/05/14 15:11:06;;;;;;;2.45;1.10;;;;;;;;;;4950435;28;20132;-63
2022/05/14 15:13:32;;;;;;;4.80;1.63;;;;;;;;;;4951930;28;20463;-62